createdAt,value
2022-08-09T00:00:00.095Z,39.23
2022-08-09T00:00:54.611Z,38.73
2022-08-09T00:01:55.402Z,38.98
2022-08-09T00:02:52.537Z,38.46
2022-08-09T00:04:05.801Z,38.77
2022-08-09T00:05:03.623Z,38.45
2022-08-09T00:06:22.931Z,38.64
2022-08-09T00:07:10.821Z,38.84
2022-08-09T00:08:53.359Z,38.02
2022-08-09T00:09:54.840Z,38.24
2022-08-09T00:10:58.195Z,38.29
2022-08-09T00:12:03.089Z,38.42
2022-08-09T00:12:55.127Z,37.58
2022-08-09T00:13:52.608Z,38.25
2022-08-09T00:14:57.679Z,38.46
2022-08-09T00:16:02.114Z,38.26
2022-08-09T00:16:52.524Z,37.89
2022-08-09T00:18:07.548Z,38.27
2022-08-09T00:18:52.459Z,38.4
2022-08-09T00:19:52.702Z,38.14
2022-08-09T00:20:52.532Z,37.88
2022-08-09T00:21:55.845Z,38.2
2022-08-09T00:22:54.936Z,38.14
2022-08-09T00:23:54.876Z,38.42
2022-08-09T00:24:52.530Z,37.85
2022-08-09T00:27:52.490Z,38.37
2022-08-09T00:28:53.298Z,37.64
2022-08-09T00:30:25.594Z,37.96
2022-08-09T00:30:52.517Z,37.81
2022-08-09T00:32:52.530Z,37.67
2022-08-09T00:33:52.444Z,38.02
2022-08-09T00:35:52.536Z,39.62
2022-08-09T00:36:52.419Z,39.51
2022-08-09T00:37:54.749Z,40.29
2022-08-09T00:38:57.660Z,40.23
2022-08-09T00:40:01.952Z,40.48
2022-08-09T00:40:58.130Z,39.81
2022-08-09T00:44:15.597Z,39.13
2022-08-09T00:44:18.699Z,40.41
2022-08-09T00:44:25.713Z,39.28
2022-08-09T00:44:54.983Z,38.64
2022-08-09T00:45:54.024Z,38.84
2022-08-09T00:46:56.941Z,39.02
2022-08-09T00:47:55.508Z,39.17
2022-08-09T00:48:55.996Z,39.17
2022-08-09T00:49:55.137Z,38.79
2022-08-09T00:50:57.563Z,39.11
2022-08-09T00:51:56.186Z,38.75
2022-08-09T00:52:55.274Z,38.46
2022-08-09T00:53:52.638Z,38.86
2022-08-09T00:54:52.451Z,38.02
2022-08-09T00:56:04.642Z,38.43
2022-08-09T00:56:54.932Z,38.43
2022-08-09T00:57:52.469Z,38.68
2022-08-09T00:58:57.656Z,37.95
2022-08-09T00:59:52.900Z,38.38
2022-08-09T01:00:52.582Z,38.32
2022-08-09T01:01:52.516Z,38.65
2022-08-09T01:02:52.410Z,38.8
2022-08-09T01:03:52.432Z,38.56
2022-08-09T01:04:55.476Z,38.12
2022-08-09T01:05:54.547Z,38.57
2022-08-09T01:06:54.831Z,38.58
2022-08-09T01:08:00.113Z,38.31
2022-08-09T01:08:52.418Z,38.14
2022-08-09T01:10:01.664Z,38.29
2022-08-09T01:10:55.368Z,38.12
2022-08-09T01:11:53.217Z,38.04
2022-08-09T01:12:52.623Z,38.01
2022-08-09T01:13:58.701Z,38.39
2022-08-09T01:14:54.749Z,37.79
2022-08-09T01:15:52.983Z,38.04
2022-08-09T01:16:54.949Z,37.79
2022-08-09T01:17:52.435Z,38.42
2022-08-09T01:19:02.505Z,38.01
2022-08-09T01:20:01.882Z,38.52
2022-08-09T01:20:52.394Z,37.92
2022-08-09T01:21:53.791Z,38.09
2022-08-09T01:22:54.892Z,37.91
2022-08-09T01:24:03.284Z,37.99
2022-08-09T01:24:54.758Z,39.27
2022-08-09T01:25:52.440Z,39.17
2022-08-09T01:26:52.775Z,38.79
2022-08-09T01:27:52.421Z,39.84
2022-08-09T01:28:54.588Z,39.78
2022-08-09T01:29:56.571Z,41.26
2022-08-09T01:30:55.310Z,41.59
2022-08-09T01:32:29.869Z,42.04
2022-08-09T01:32:55.002Z,41.56
2022-08-09T01:33:56.898Z,41.5
2022-08-09T01:34:59.745Z,41.12
2022-08-09T01:35:52.414Z,40.69
2022-08-09T01:36:52.429Z,39.85
2022-08-09T01:38:09.389Z,39.66
2022-08-09T01:39:52.457Z,39.12
2022-08-09T01:41:56.021Z,38.9
2022-08-09T01:42:54.829Z,38.34
2022-08-09T01:43:54.654Z,38.56
2022-08-09T01:44:52.405Z,38.26
2022-08-09T01:45:58.103Z,38.59
2022-08-09T01:46:53.008Z,38.58
2022-08-09T01:47:54.776Z,38.74
2022-08-09T01:48:54.574Z,38.72
2022-08-09T01:49:54.684Z,38.54
2022-08-09T01:50:55.213Z,38.41
2022-08-09T01:51:55.396Z,38.5
2022-08-09T01:52:52.410Z,38.35
2022-08-09T01:53:58.225Z,38.71
2022-08-09T01:54:52.421Z,38.54
2022-08-09T01:55:52.436Z,38.65
2022-08-09T01:56:54.975Z,37.86
2022-08-09T01:57:57.849Z,38.24
2022-08-09T01:58:52.385Z,38.13
2022-08-09T02:00:00.098Z,38.37
2022-08-09T02:00:54.958Z,38.02
2022-08-09T02:01:59.142Z,38.35
2022-08-09T02:02:52.379Z,37.72
2022-08-09T02:03:54.601Z,38.38
2022-08-09T02:04:55.466Z,38.15
2022-08-09T02:06:06.617Z,38.62
2022-08-09T02:08:36.066Z,38.46
2022-08-09T02:08:58.870Z,37.97
2022-08-09T02:10:01.259Z,38.37
2022-08-09T02:10:59.744Z,38.18
2022-08-09T02:11:52.337Z,38.44
2022-08-09T02:13:01.517Z,38.12
2022-08-09T02:14:06.435Z,38.51
2022-08-09T02:14:52.337Z,37.99
2022-08-09T02:16:07.760Z,38.53
2022-08-09T02:16:53.063Z,38.07
2022-08-09T02:18:13.137Z,37.53
2022-08-09T02:19:54.583Z,38.75
2022-08-09T02:20:52.380Z,38.71
2022-08-09T02:21:55.331Z,38.59
2022-08-09T02:22:52.369Z,38.01
2022-08-09T02:23:57.889Z,40.2
2022-08-09T02:24:52.378Z,39.78
2022-08-09T02:25:55.694Z,40.83
2022-08-09T02:26:52.347Z,41.13
2022-08-09T02:28:03.623Z,40.68
2022-08-09T02:28:52.368Z,40.67
2022-08-09T02:29:52.351Z,40.61
2022-08-09T02:30:54.597Z,40.55
2022-08-09T02:31:54.968Z,40.12
2022-08-09T02:32:52.361Z,39.47
2022-08-09T02:34:06.375Z,39.67
2022-08-09T02:34:55.946Z,39.42
2022-08-09T02:36:12.670Z,39.58
2022-08-09T02:37:00.937Z,39.19
2022-08-09T02:37:54.740Z,39.11
2022-08-09T02:38:55.001Z,39.08
2022-08-09T02:39:55.037Z,38.91
2022-08-09T02:41:52.359Z,38.91
2022-08-09T02:42:52.305Z,38.4
2022-08-09T02:43:55.574Z,38.67
2022-08-09T02:44:59.799Z,39.21
2022-08-09T02:45:52.336Z,38.78
2022-08-09T02:46:55.056Z,38.46
2022-08-09T02:48:12.289Z,38.55
2022-08-09T02:48:54.634Z,38.57
2022-08-09T02:49:55.480Z,38.69
2022-08-09T02:50:56.299Z,38.96
2022-08-09T02:51:54.610Z,38.94
2022-08-09T02:52:55.397Z,37.95
2022-08-09T02:54:54.928Z,38.39
2022-08-09T02:55:58.630Z,38.89
2022-08-09T02:56:57.943Z,38.34
2022-08-09T02:58:00.719Z,38.61
2022-08-09T02:58:55.152Z,38.28
2022-08-09T03:00:21.500Z,38.62
2022-08-09T03:00:57.850Z,38.11
2022-08-09T03:02:05.506Z,38.44
2022-08-09T03:03:00.078Z,38.71
2022-08-09T03:04:18.313Z,38.81
2022-08-09T03:05:52.338Z,38.65
2022-08-09T03:06:55.286Z,38.07
2022-08-09T03:07:55.384Z,38.68
2022-08-09T03:08:54.609Z,38.47
2022-08-09T03:09:54.210Z,38.76
2022-08-09T03:10:54.815Z,37.91
2022-08-09T03:12:11.023Z,38.46
2022-08-09T03:12:54.478Z,38.08
2022-08-09T03:14:01.337Z,38.67
2022-08-09T03:14:52.272Z,38.23
2022-08-09T03:16:52.436Z,38.99
2022-08-09T03:17:57.793Z,39.36
2022-08-09T03:18:53.062Z,39.11
2022-08-09T03:20:00.794Z,39.7
2022-08-09T03:20:54.743Z,40.04
2022-08-09T03:21:57.709Z,41.2
2022-08-09T03:23:15.037Z,41.75
2022-08-09T03:24:03.689Z,41.56
2022-08-09T03:25:21.461Z,42.23
2022-08-09T03:26:03.644Z,42.39
2022-08-09T03:27:55.322Z,42.17
2022-08-09T03:28:57.388Z,40.66
2022-08-09T03:30:54.687Z,40.13
2022-08-09T03:31:59.825Z,39.84
2022-08-09T03:32:52.276Z,39.43
2022-08-09T03:33:56.453Z,39.62
2022-08-09T03:34:55.152Z,39.4
2022-08-09T03:36:12.737Z,39.35
2022-08-09T03:36:59.836Z,39.19
2022-08-09T03:38:28.522Z,39.21
2022-08-09T03:38:52.311Z,38.42
2022-08-09T03:39:56.561Z,39.05
2022-08-09T03:40:52.272Z,38.95
2022-08-09T03:42:06.041Z,39.05
2022-08-09T03:42:54.599Z,38.42
2022-08-09T03:44:10.157Z,38.75
2022-08-09T03:44:52.270Z,38.82
2022-08-09T03:46:03.127Z,39.05
2022-08-09T03:46:52.261Z,38.55
2022-08-09T03:48:52.293Z,38.66
2022-08-09T03:49:58.377Z,38.75
2022-08-09T03:51:00.899Z,38.41
2022-08-09T03:51:58.489Z,39.09
2022-08-09T03:52:52.277Z,38.59
2022-08-09T03:53:54.316Z,38.89
2022-08-09T03:54:54.618Z,39.06
2022-08-09T03:55:54.972Z,39.04
2022-08-09T03:56:53.382Z,38.59
2022-08-09T03:58:06.459Z,38.92
2022-08-09T03:58:54.618Z,38.39
2022-08-09T04:00:00.642Z,39.08
2022-08-09T04:00:55.211Z,38.75
2022-08-09T04:01:52.223Z,39.09
2022-08-09T04:02:54.685Z,38.44
2022-08-09T04:04:01.278Z,38.83
2022-08-09T04:04:52.272Z,38.37
2022-08-09T04:05:57.626Z,38.75
2022-08-09T04:06:55.070Z,38.95
2022-08-09T04:07:57.226Z,39.01
2022-08-09T04:08:55.189Z,38.49
2022-08-09T04:09:54.540Z,39.06
2022-08-09T04:10:54.348Z,38.96
2022-08-09T04:11:52.219Z,39
2022-08-09T04:12:52.273Z,38.88
2022-08-09T04:16:19.267Z,38.32
2022-08-09T04:16:52.194Z,37.74
2022-08-09T04:17:57.732Z,38.68
2022-08-09T04:19:01.369Z,38.78
2022-08-09T04:19:56.165Z,39.75
2022-08-09T04:20:52.192Z,38.65
2022-08-09T04:21:52.180Z,39.1
2022-08-09T04:22:57.682Z,40.29
2022-08-09T04:23:57.511Z,40.82
2022-08-09T04:24:54.320Z,40.46
2022-08-09T04:25:54.669Z,41.12
2022-08-09T04:26:59.492Z,41.61
2022-08-09T04:27:54.961Z,42.08
2022-08-09T04:28:59.733Z,40.55
2022-08-09T04:29:54.622Z,41.31
2022-08-09T04:30:54.976Z,40.21
2022-08-09T04:31:54.821Z,40.16
2022-08-09T04:32:57.702Z,40.06
2022-08-09T04:34:05.721Z,40
2022-08-09T04:34:54.335Z,39.5
2022-08-09T04:35:59.457Z,39.82
2022-08-09T04:36:52.164Z,39.56
2022-08-09T04:37:54.442Z,39.95
2022-08-09T04:38:54.908Z,39.71
2022-08-09T04:39:54.618Z,39.5
2022-08-09T04:40:56.179Z,39.4
2022-08-09T04:41:52.198Z,39.28
2022-08-09T04:42:54.500Z,38.77
2022-08-09T04:44:07.019Z,39.2
2022-08-09T04:44:54.727Z,39.3
2022-08-09T04:45:53.585Z,38.97
2022-08-09T04:47:04.533Z,40.51
2022-08-09T04:48:00.209Z,40.88
2022-08-09T04:48:58.306Z,40.72
2022-08-09T04:49:55.714Z,41.23
2022-08-09T04:50:52.146Z,41.96
2022-08-09T04:51:55.121Z,42.8
2022-08-09T04:52:52.159Z,42.98
2022-08-09T04:53:58.463Z,42.51
2022-08-09T04:55:58.993Z,42.85
2022-08-09T04:56:54.258Z,42.53
2022-08-09T04:57:58.854Z,42.34
2022-08-09T04:58:55.320Z,41.21
2022-08-09T04:59:52.221Z,41.2
2022-08-09T05:00:57.491Z,40.96
2022-08-09T05:01:52.189Z,40.73
2022-08-09T05:02:54.387Z,39.89
2022-08-09T05:03:58.706Z,40.3
2022-08-09T05:04:55.512Z,40.59
2022-08-09T05:06:06.721Z,40.31
2022-08-09T05:06:54.332Z,40.09
2022-08-09T05:07:56.233Z,40.12
2022-08-09T05:08:52.186Z,40.01
2022-08-09T05:09:54.537Z,39.76
2022-08-09T05:10:52.220Z,39.85
2022-08-09T05:11:52.225Z,40.34
2022-08-09T05:12:54.573Z,40.64
2022-08-09T05:13:52.206Z,40.35
2022-08-09T05:14:52.210Z,40.76
2022-08-09T05:16:00.542Z,40.95
2022-08-09T05:16:59.728Z,40.16
2022-08-09T05:18:38.483Z,40.35
2022-08-09T05:18:59.858Z,39.63
2022-08-09T05:19:56.733Z,40.09
2022-08-09T05:20:52.243Z,40.1
2022-08-09T05:21:52.419Z,40.4
2022-08-09T05:23:54.879Z,40.11
2022-08-09T05:24:00.403Z,39.63
2022-08-09T05:24:57.258Z,40.25
2022-08-09T05:25:52.157Z,41.51
2022-08-09T05:26:52.177Z,41.25
2022-08-09T05:27:55.476Z,41.6
2022-08-09T05:28:52.288Z,41.1
2022-08-09T05:29:54.388Z,43.41
2022-08-09T05:30:52.263Z,43.99
2022-08-09T05:31:57.271Z,43.38
2022-08-09T05:32:53.402Z,42.56
2022-08-09T05:33:52.116Z,42.26
2022-08-09T05:34:52.130Z,42.85
2022-08-09T05:35:52.258Z,42.78
2022-08-09T05:36:52.181Z,43.73
2022-08-09T05:37:53.486Z,44.23
2022-08-09T05:38:52.140Z,44.45
2022-08-09T05:39:57.371Z,44.18
2022-08-09T05:40:54.224Z,44.43
2022-08-09T05:41:52.190Z,44.5
2022-08-09T05:42:54.838Z,44.57
2022-08-09T05:43:52.160Z,43.98
2022-08-09T05:44:52.395Z,43.65
2022-08-09T05:45:56.849Z,42.68
2022-08-09T05:46:52.192Z,41.91
2022-08-09T05:48:01.489Z,42.04
2022-08-09T05:48:58.887Z,41.46
2022-08-09T05:50:30.834Z,41.87
2022-08-09T05:51:16.496Z,42.9
2022-08-09T05:52:54.035Z,44.08
2022-08-09T05:53:57.429Z,44.73
2022-08-09T05:54:52.131Z,43.9
2022-08-09T05:55:53.053Z,42.93
2022-08-09T05:56:54.972Z,42.2
2022-08-09T05:57:57.484Z,41.96
2022-08-09T05:58:58.299Z,41.4
2022-08-09T05:59:52.163Z,41.6
2022-08-09T06:00:52.187Z,41.15
2022-08-09T06:01:52.121Z,41.16
2022-08-09T06:02:54.688Z,40.96
2022-08-09T06:04:55.793Z,40.57
2022-08-09T06:06:04.377Z,41.08
2022-08-09T06:06:59.432Z,40.18
2022-08-09T06:08:08.086Z,40.82
2022-08-09T06:08:52.783Z,41.3
2022-08-09T06:10:02.345Z,41.1
2022-08-09T06:10:52.108Z,40.81
2022-08-09T06:11:57.825Z,41.54
2022-08-09T06:13:18.170Z,41.71
2022-08-09T06:13:54.522Z,41.51
2022-08-09T06:14:53.274Z,40.95
2022-08-09T06:16:54.761Z,40.51
2022-08-09T06:17:54.567Z,40.59
2022-08-09T06:19:27.833Z,39.98
2022-08-09T06:19:52.100Z,40.99
2022-08-09T06:21:07.493Z,39.33
2022-08-09T06:21:58.649Z,40.42
2022-08-09T06:22:54.505Z,39.77
2022-08-09T06:23:55.716Z,40.34
2022-08-09T06:24:52.167Z,39.87
2022-08-09T06:25:55.150Z,40.68
2022-08-09T06:27:54.237Z,41.07
2022-08-09T06:28:59.552Z,41.03
2022-08-09T06:30:54.186Z,41.28
2022-08-09T06:32:08.990Z,42.22
2022-08-09T06:32:59.558Z,40.76
2022-08-09T06:33:53.293Z,40.84
2022-08-09T06:34:54.719Z,40.94
2022-08-09T06:35:57.639Z,41.23
2022-08-09T06:36:58.894Z,40.75
2022-08-09T06:38:05.389Z,41.41
2022-08-09T06:38:57.275Z,41.16
2022-08-09T06:40:00.176Z,41.85
2022-08-09T06:40:55.021Z,41.22
2022-08-09T06:42:55.060Z,41.05
2022-08-09T06:46:06.057Z,40.73
2022-08-09T06:46:55.395Z,40.78
2022-08-09T06:48:00.613Z,41.26
2022-08-09T06:48:57.428Z,41.59
2022-08-09T06:50:14.730Z,41.69
2022-08-09T06:50:52.115Z,41.2
2022-08-09T06:52:52.075Z,40.47
2022-08-09T06:53:52.112Z,40.72
2022-08-09T06:54:52.069Z,40.48
2022-08-09T06:55:52.025Z,41.24
2022-08-09T06:56:52.031Z,41.02
2022-08-09T06:58:02.548Z,41.39
2022-08-09T07:00:54.636Z,41.64
2022-08-09T07:00:56.019Z,40.9
2022-08-09T07:00:58.607Z,41.56
2022-08-09T07:01:59.650Z,41.43
2022-08-09T07:03:05.338Z,42.72
2022-08-09T07:03:53.971Z,44.35
2022-08-09T07:04:54.147Z,43.76
2022-08-09T07:06:03.679Z,43.63
2022-08-09T07:06:53.420Z,42.91
2022-08-09T07:08:00.603Z,43.27
2022-08-09T07:08:54.945Z,44.04
2022-08-09T07:10:54.824Z,43.02
2022-08-09T07:11:54.631Z,44.55
2022-08-09T07:12:57.426Z,43.61
2022-08-09T07:14:04.813Z,44.19
2022-08-09T07:14:53.441Z,44.28
2022-08-09T07:16:36.090Z,45.69
2022-08-09T07:16:57.729Z,45.54
2022-08-09T07:17:56.426Z,44.83
2022-08-09T07:18:54.415Z,44.05
2022-08-09T07:19:55.507Z,44.12
2022-08-09T07:20:52.113Z,43.54
2022-08-09T07:21:57.555Z,44.71
2022-08-09T07:22:54.802Z,44.37
2022-08-09T07:23:57.844Z,44.3
2022-08-09T07:24:52.181Z,43.83
2022-08-09T07:26:52.034Z,43.51
2022-08-09T07:27:55.609Z,43.69
2022-08-09T07:29:08.611Z,43.2
2022-08-09T07:29:57.080Z,42.96
2022-08-09T07:30:54.639Z,42.62
2022-08-09T07:31:52.011Z,42.3
2022-08-09T07:32:51.997Z,42.71
2022-08-09T07:33:52.754Z,42.88
2022-08-09T07:35:00.573Z,42.47
2022-08-09T07:35:53.527Z,42.54
2022-08-09T07:36:52.840Z,42.81
2022-08-09T07:37:52.019Z,42.34
2022-08-09T07:39:00.586Z,42.46
2022-08-09T07:39:52.099Z,41.76
2022-08-09T07:41:08.241Z,41.21
2022-08-09T07:41:52.054Z,41.55
2022-08-09T07:42:59.348Z,40.83
2022-08-09T07:43:56.470Z,40.95
2022-08-09T07:44:58.419Z,40.94
2022-08-09T07:45:52.023Z,40.62
2022-08-09T07:46:52.142Z,40.99
2022-08-09T07:48:01.419Z,40.84
2022-08-09T07:48:59.387Z,39.94
2022-08-09T07:50:07.772Z,41.9
2022-08-09T07:50:52.789Z,43.01
2022-08-09T07:52:16.710Z,43.69
2022-08-09T07:52:54.088Z,42.68
2022-08-09T07:54:05.853Z,44.28
2022-08-09T07:54:55.041Z,43.62
2022-08-09T07:56:02.924Z,43.27
2022-08-09T07:56:52.015Z,45.03
2022-08-09T07:57:54.375Z,45.43
2022-08-09T07:59:03.704Z,45.45
2022-08-09T08:00:03.003Z,45.13
2022-08-09T08:00:58.869Z,45.29
2022-08-09T08:01:53.078Z,45.97
2022-08-09T08:02:54.180Z,45
2022-08-09T08:04:54.466Z,44.23
2022-08-09T08:05:58.050Z,44.33
2022-08-09T08:06:56.348Z,44.08
2022-08-09T08:08:43.661Z,44.6
2022-08-09T08:09:03.958Z,44.09
2022-08-09T08:10:04.594Z,43.73
2022-08-09T08:11:15.346Z,43.05
2022-08-09T08:12:24.095Z,43.12
2022-08-09T08:12:51.961Z,42.94
2022-08-09T08:13:57.129Z,43.12
2022-08-09T08:14:51.959Z,43.3
2022-08-09T08:15:54.915Z,43.83
2022-08-09T08:17:07.570Z,43.62
2022-08-09T08:17:55.597Z,43.86
2022-08-09T08:18:54.573Z,43.46
2022-08-09T08:19:51.950Z,43.59
2022-08-09T08:20:52.077Z,43.67
2022-08-09T08:21:52.628Z,43.95
2022-08-09T08:22:58.554Z,43.48
2022-08-09T08:23:55.639Z,44.76
2022-08-09T08:24:52.066Z,44.69
2022-08-09T08:26:08.031Z,43.04
2022-08-09T08:26:55.701Z,41.91
2022-08-09T08:27:54.481Z,42.35
2022-08-09T08:28:54.825Z,41.21
2022-08-09T08:29:54.098Z,41.59
2022-08-09T08:30:53.968Z,41.31
2022-08-09T08:32:04.302Z,41.3
2022-08-09T08:32:57.929Z,41.2
2022-08-09T08:33:56.125Z,41.49
2022-08-09T08:34:58.956Z,41.26
2022-08-09T08:35:59.382Z,41.65
2022-08-09T08:36:54.884Z,40.74
2022-08-09T08:38:02.071Z,40.29
2022-08-09T08:38:53.120Z,39.87
2022-08-09T08:39:55.000Z,39.95
2022-08-09T08:40:51.956Z,40.18
2022-08-09T08:41:54.036Z,40.81
2022-08-09T08:43:00.434Z,40.4
2022-08-09T08:43:56.383Z,40.6
2022-08-09T08:44:52.053Z,39.9
2022-08-09T08:46:32.420Z,40.38
2022-08-09T08:47:03.190Z,40.04
2022-08-09T08:47:58.950Z,40.37
2022-08-09T08:49:51.925Z,43.14
2022-08-09T08:50:59.013Z,43.48
2022-08-09T08:52:00.297Z,44.06
2022-08-09T08:52:59.525Z,43.44
2022-08-09T08:54:03.665Z,44.07
2022-08-09T08:54:59.296Z,44.21
2022-08-09T08:55:52.465Z,44.03
2022-08-09T08:56:54.070Z,44
2022-08-09T08:57:56.445Z,44.05
2022-08-09T08:58:59.199Z,43.3
2022-08-09T08:59:59.241Z,44.57
2022-08-09T09:00:54.271Z,43.5
2022-08-09T09:01:57.047Z,44.03
2022-08-09T09:02:52.898Z,43.85
2022-08-09T09:03:52.000Z,42.88
2022-08-09T09:04:53.121Z,42.64
2022-08-09T09:07:09.394Z,42.29
2022-08-09T09:07:51.882Z,42.78
2022-08-09T09:08:59.436Z,42.27
2022-08-09T09:10:01.940Z,41.91
2022-08-09T09:10:51.950Z,42.41
2022-08-09T09:11:58.166Z,42.89
2022-08-09T09:12:51.955Z,42.91
2022-08-09T09:13:58.615Z,43.61
2022-08-09T09:14:54.743Z,43.09
2022-08-09T09:15:54.121Z,43.25
2022-08-09T09:16:51.962Z,42.46
2022-08-09T09:17:52.884Z,42.5
2022-08-09T09:19:02.376Z,41.78
2022-08-09T09:19:54.544Z,41.42
2022-08-09T09:20:51.983Z,40.24
2022-08-09T09:21:54.036Z,40.27
2022-08-09T09:23:02.080Z,40.62
2022-08-09T09:23:59.330Z,40.82
2022-08-09T09:24:59.097Z,40.04
2022-08-09T09:26:51.853Z,40.31
2022-08-09T09:28:06.017Z,40.42
2022-08-09T09:29:03.406Z,39.92
2022-08-09T09:30:16.550Z,40.23
2022-08-09T09:30:54.501Z,39.26
2022-08-09T09:32:06.221Z,39.59
2022-08-09T09:32:51.862Z,39.8
2022-08-09T09:33:56.872Z,40.21
2022-08-09T09:34:51.867Z,39.45
2022-08-09T09:35:53.118Z,40.35
2022-08-09T09:36:54.249Z,39.64
2022-08-09T09:37:54.156Z,39.82
2022-08-09T09:38:51.884Z,39.67
2022-08-09T09:39:56.811Z,39.64
2022-08-09T09:40:52.296Z,41.37
2022-08-09T09:41:51.900Z,41.48
2022-08-09T09:42:51.929Z,42.19
2022-08-09T09:44:12.288Z,43.32
2022-08-09T09:44:54.905Z,43.78
2022-08-09T09:46:41.816Z,44.26
2022-08-09T09:46:54.031Z,43.88
2022-08-09T09:48:54.033Z,43.56
2022-08-09T09:50:14.082Z,43.45
2022-08-09T09:50:52.614Z,43.4
2022-08-09T09:51:54.255Z,43.84
2022-08-09T09:52:53.676Z,43.81
2022-08-09T09:54:02.120Z,43.56
2022-08-09T09:54:57.388Z,42.64
2022-08-09T09:56:03.839Z,42.68
2022-08-09T09:56:53.282Z,42.02
2022-08-09T09:58:02.767Z,42.23
2022-08-09T09:59:54.102Z,42.43
2022-08-09T10:01:07.041Z,43.05
2022-08-09T10:01:51.857Z,42.71
2022-08-09T10:02:51.868Z,42.52
2022-08-09T10:03:58.044Z,42.71
2022-08-09T10:04:51.865Z,43.01
2022-08-09T10:06:03.623Z,43
2022-08-09T10:06:54.306Z,42.44
2022-08-09T10:08:01.202Z,43.52
2022-08-09T10:08:57.903Z,43.03
2022-08-09T10:09:54.825Z,43.36
2022-08-09T10:10:51.872Z,42.28
2022-08-09T10:11:59.805Z,43.55
2022-08-09T10:12:55.246Z,43.45
2022-08-09T10:13:54.746Z,42.61
2022-08-09T10:14:51.970Z,41.37
2022-08-09T10:16:54.387Z,42.55
2022-08-09T10:17:40.473Z,42.55
2022-08-09T10:17:56.647Z,43.53
2022-08-09T10:18:54.441Z,42.8
2022-08-09T10:19:52.021Z,43.24
2022-08-09T10:20:54.446Z,42.38
2022-08-09T10:21:51.789Z,42.1
2022-08-09T10:22:59.949Z,41.9
2022-08-09T10:23:53.914Z,41.96
2022-08-09T10:24:54.266Z,40.7
2022-08-09T10:26:06.687Z,41.01
2022-08-09T10:26:51.815Z,40.6
2022-08-09T10:27:57.954Z,40.53
2022-08-09T10:29:22.736Z,40.29
2022-08-09T10:30:43.666Z,40.75
2022-08-09T10:32:52.089Z,39.5
2022-08-09T10:34:09.907Z,39.32
2022-08-09T10:34:54.266Z,39.29
2022-08-09T10:36:11.547Z,39.11
2022-08-09T10:36:51.818Z,38.89
2022-08-09T10:37:51.935Z,38.68
2022-08-09T10:38:57.202Z,38.31
2022-08-09T10:39:51.831Z,38.69
2022-08-09T10:40:54.061Z,38.56
2022-08-09T10:41:54.190Z,38.64
2022-08-09T10:44:01.420Z,41.56
2022-08-09T10:44:51.849Z,42.46
2022-08-09T10:46:00.149Z,43.44
2022-08-09T10:46:57.304Z,44.28
2022-08-09T10:48:52.330Z,44.75
2022-08-09T10:49:57.014Z,44.39
2022-08-09T10:50:54.868Z,43.58
2022-08-09T10:51:52.816Z,42.96
2022-08-09T10:52:51.787Z,42.7
2022-08-09T10:53:55.011Z,42.46
2022-08-09T10:54:54.789Z,41.93
2022-08-09T10:55:58.477Z,42.1
2022-08-09T10:56:54.025Z,42.22
2022-08-09T10:57:55.911Z,41.6
2022-08-09T10:58:54.806Z,41.14
2022-08-09T11:03:03.105Z,41.19
2022-08-09T11:03:15.241Z,42.37
2022-08-09T11:03:15.493Z,42.05
2022-08-09T11:03:53.752Z,42.31
2022-08-09T11:04:55.925Z,42.26
2022-08-09T11:06:00.458Z,43.23
2022-08-09T11:06:56.995Z,43.21
2022-08-09T11:07:54.982Z,43.4
2022-08-09T11:08:58.198Z,42.66
2022-08-09T11:09:59.785Z,42.44
2022-08-09T11:11:09.714Z,41.83
2022-08-09T11:11:52.121Z,42.12
2022-08-09T11:12:54.472Z,41.25
2022-08-09T11:13:54.274Z,40.55
2022-08-09T11:14:51.784Z,39.7
2022-08-09T11:16:04.879Z,40.36
2022-08-09T11:16:52.068Z,39.47
2022-08-09T11:18:03.076Z,39.01
2022-08-09T11:18:51.746Z,39.22
2022-08-09T11:20:11.530Z,39.41
2022-08-09T11:21:57.149Z,40.02
2022-08-09T11:22:57.333Z,41.36
2022-08-09T11:23:53.771Z,41.4
2022-08-09T11:24:54.597Z,41.72
2022-08-09T11:26:54.947Z,41.51
2022-08-09T11:28:05.589Z,42.84
2022-08-09T11:28:59.206Z,43.57
2022-08-09T11:30:04.485Z,44.12
2022-08-09T11:31:54.907Z,45.35
2022-08-09T11:32:51.792Z,45.65
2022-08-09T11:33:51.740Z,44.99
2022-08-09T11:34:54.734Z,44.45
2022-08-09T11:35:54.962Z,44.25
2022-08-09T11:36:51.728Z,44
2022-08-09T11:37:54.426Z,43.68
2022-08-09T11:38:51.752Z,42.84
2022-08-09T11:40:00.682Z,42.67
2022-08-09T11:40:52.819Z,42.61
2022-08-09T11:41:58.547Z,42.56
2022-08-09T11:42:51.713Z,42.27
2022-08-09T11:43:56.983Z,41.87
2022-08-09T11:44:51.701Z,42.01
2022-08-09T11:45:51.808Z,41.48
2022-08-09T11:46:51.710Z,40.55
2022-08-09T11:47:53.952Z,41.37
2022-08-09T11:48:51.724Z,42
2022-08-09T11:50:52.954Z,42.66
2022-08-09T11:50:55.020Z,42.38
2022-08-09T11:52:56.628Z,42.16
2022-08-09T11:53:03.181Z,42.56
2022-08-09T11:54:01.682Z,42.88
2022-08-09T11:54:51.726Z,42.68
2022-08-09T11:56:02.235Z,43.03
2022-08-09T11:56:54.643Z,42.73
2022-08-09T11:58:53.908Z,42.66
2022-08-09T11:59:54.319Z,43.5
2022-08-09T12:00:52.912Z,43.57
2022-08-09T12:02:16.860Z,43.52
2022-08-09T12:02:53.404Z,43.16
2022-08-09T12:03:58.120Z,43.93
2022-08-09T12:04:58.120Z,44.26
2022-08-09T12:05:51.810Z,44.8
2022-08-09T12:06:55.533Z,44.55
2022-08-09T12:07:52.745Z,44.34
2022-08-09T12:08:54.006Z,45.65
2022-08-09T12:09:53.714Z,45.5
2022-08-09T12:12:03.492Z,45
2022-08-09T12:12:54.342Z,44.55
2022-08-09T12:14:09.154Z,44.42
2022-08-09T12:15:49.582Z,45.14
2022-08-09T12:15:52.216Z,45.39
2022-08-09T12:17:54.104Z,45.04
2022-08-09T12:18:54.657Z,43.78
2022-08-09T12:19:59.748Z,44.34
2022-08-09T12:20:51.702Z,43.99
2022-08-09T12:21:51.787Z,44.21
2022-08-09T12:22:51.730Z,43.84
2022-08-09T12:24:09.445Z,43.76
2022-08-09T12:24:51.711Z,43.37
2022-08-09T12:25:51.692Z,43.16
2022-08-09T12:28:58.771Z,42.98
2022-08-09T12:29:13.476Z,42.89
2022-08-09T12:29:33.070Z,42.9
2022-08-09T12:30:51.710Z,41.45
2022-08-09T12:32:02.096Z,42.24
2022-08-09T12:32:51.710Z,41.52
2022-08-09T12:33:59.054Z,40.74
2022-08-09T12:34:51.676Z,40.23
2022-08-09T12:35:51.766Z,40.18
2022-08-09T12:36:58.959Z,39.99
2022-08-09T12:38:54.221Z,43.23
2022-08-09T12:39:51.744Z,43.15
2022-08-09T12:40:54.457Z,42.66
2022-08-09T12:41:51.684Z,42.54
2022-08-09T12:42:54.077Z,43.88
2022-08-09T12:44:06.801Z,44.96
2022-08-09T12:44:52.471Z,44.67
2022-08-09T12:46:00.745Z,44.7
2022-08-09T12:47:51.671Z,46.04
2022-08-09T12:48:51.668Z,46.84
2022-08-09T12:49:53.079Z,46.56
2022-08-09T12:50:51.703Z,46.31
2022-08-09T12:52:02.695Z,46.44
2022-08-09T12:53:08.974Z,45.84
2022-08-09T12:53:52.987Z,44.86
2022-08-09T12:56:10.654Z,43.57
2022-08-09T12:56:12.272Z,43.51
2022-08-09T12:56:53.931Z,42.85
2022-08-09T12:57:51.635Z,42.67
2022-08-09T12:59:06.748Z,42.14
2022-08-09T13:00:03.910Z,42.7
2022-08-09T13:00:54.082Z,42.04
2022-08-09T13:01:54.725Z,42.4
2022-08-09T13:02:53.413Z,41.7
2022-08-09T13:03:53.701Z,42.12
2022-08-09T13:04:53.871Z,41.81
2022-08-09T13:06:13.504Z,41.28
2022-08-09T13:06:51.683Z,41.29
2022-08-09T13:07:53.944Z,41.64
2022-08-09T13:08:54.541Z,40.57
2022-08-09T13:09:53.039Z,40.08
2022-08-09T13:10:53.697Z,39.41
2022-08-09T13:12:02.169Z,39.83
2022-08-09T13:13:11.451Z,39.65
2022-08-09T13:14:40.853Z,39.11
2022-08-09T13:14:54.429Z,40.78
2022-08-09T13:15:51.721Z,41.27
2022-08-09T13:16:51.619Z,42.12
2022-08-09T13:18:04.764Z,43.7
2022-08-09T13:18:53.562Z,44.33
2022-08-09T13:22:33.450Z,44.46
2022-08-09T13:22:35.668Z,44.72
2022-08-09T13:23:05.802Z,46.61
2022-08-09T13:24:16.798Z,47.1
2022-08-09T13:24:54.858Z,46.79
2022-08-09T13:25:56.041Z,46.04
2022-08-09T13:26:51.611Z,44.99
2022-08-09T13:27:55.700Z,44.52
2022-08-09T13:28:54.655Z,43.27
2022-08-09T13:30:03.570Z,43.18
2022-08-09T13:32:12.494Z,42.26
2022-08-09T13:32:17.101Z,42.44
2022-08-09T13:33:00.130Z,41.54
2022-08-09T13:33:54.516Z,41.73
2022-08-09T13:34:52.098Z,41.16
2022-08-09T13:36:38.221Z,41.44
2022-08-09T13:36:56.892Z,40.84
2022-08-09T13:37:52.953Z,40.73
2022-08-09T13:38:56.636Z,40.44
2022-08-09T13:41:46.966Z,39.67
2022-08-09T13:41:53.918Z,41.08
2022-08-09T13:42:00.807Z,41.16
2022-08-09T13:42:51.651Z,41.14
2022-08-09T13:43:56.913Z,40.65
2022-08-09T13:44:56.965Z,39.73
2022-08-09T13:46:44.753Z,39.33